sensor_id;sensor_type;location;lat;lon;timestamp;pressure;altitude;pressure_sealevel;temperature;humidity
39613;BME280;25303;48.896;13.342;2023-04-19T00:02:23;93237.88;;;7.02;73.25
39613;BME280;25303;48.896;13.342;2023-04-19T00:05:07;93240.59;;;7.01;73.13
39613;BME280;25303;48.896;13.342;2023-04-19T00:07:52;93238.97;;;6.99;73.32
39613;BME280;25303;48.896;13.342;2023-04-19T00:10:34;93232.31;;;6.97;73.30
39613;BME280;25303;48.896;13.342;2023-04-19T00:13:18;93229.34;;;6.92;73.42
39613;BME280;25303;48.896;13.342;2023-04-19T00:16:01;93226.91;;;6.90;73.51
39613;BME280;25303;48.896;13.342;2023-04-19T00:18:44;93220.59;;;6.94;73.32
39613;BME280;25303;48.896;13.342;2023-04-19T00:21:27;93218.34;;;7.01;72.88
39613;BME280;25303;48.896;13.342;2023-04-19T00:24:11;93224.69;;;7.07;72.44
39613;BME280;25303;48.896;13.342;2023-04-19T00:26:54;93223.06;;;7.06;72.43
39613;BME280;25303;48.896;13.342;2023-04-19T00:29:37;93221.44;;;7.05;72.22
39613;BME280;25303;48.896;13.342;2023-04-19T00:32:20;93219.03;;;7.03;72.38
39613;BME280;25303;48.896;13.342;2023-04-19T00:35:05;93213.13;;;7.03;72.42
39613;BME280;25303;48.896;13.342;2023-04-19T00:37:48;93213.78;;;7.05;72.64
39613;BME280;25303;48.896;13.342;2023-04-19T00:40:32;93206.09;;;7.05;72.47
39613;BME280;25303;48.896;13.342;2023-04-19T00:43:18;93196.00;;;7.03;72.36
39613;BME280;25303;48.896;13.342;2023-04-19T00:46:01;93206.38;;;7.02;72.41
39613;BME280;25303;48.896;13.342;2023-04-19T00:48:44;93203.13;;;6.99;72.50
39613;BME280;25303;48.896;13.342;2023-04-19T00:51:27;93199.03;;;6.97;72.41
39613;BME280;25303;48.896;13.342;2023-04-19T00:54:11;93205.94;;;6.96;72.46
39613;BME280;25303;48.896;13.342;2023-04-19T00:56:56;93195.94;;;6.93;72.73
39613;BME280;25303;48.896;13.342;2023-04-19T00:59:39;93188.94;;;6.95;72.73
39613;BME280;25303;48.896;13.342;2023-04-19T01:02:22;93186.13;;;6.98;72.84
39613;BME280;25303;48.896;13.342;2023-04-19T01:05:05;93181.72;;;7.01;72.71
39613;BME280;25303;48.896;13.342;2023-04-19T01:07:49;93181.72;;;7.01;72.52
39613;BME280;25303;48.896;13.342;2023-04-19T01:10:32;93187.63;;;7.01;72.56
39613;BME280;25303;48.896;13.342;2023-04-19T01:13:16;93187.63;;;7.01;72.54
39613;BME280;25303;48.896;13.342;2023-04-19T01:15:59;93176.84;;;6.97;72.54
39613;BME280;25303;48.896;13.342;2023-04-19T01:18:42;93171.03;;;6.95;72.51
39613;BME280;25303;48.896;13.342;2023-04-19T01:21:25;93173.97;;;6.91;72.46
39613;BME280;25303;48.896;13.342;2023-04-19T01:24:11;93173.84;;;6.92;72.35
39613;BME280;25303;48.896;13.342;2023-04-19T01:26:54;93165.47;;;6.90;72.39
39613;BME280;25303;48.896;13.342;2023-04-19T01:29:37;93160.44;;;6.79;72.74
39613;BME280;25303;48.896;13.342;2023-04-19T01:32:20;93155.25;;;6.69;72.84
39613;BME280;25303;48.896;13.342;2023-04-19T01:35:04;93161.56;;;6.65;72.85
39613;BME280;25303;48.896;13.342;2023-04-19T01:37:47;93162.31;;;6.56;73.25
39613;BME280;25303;48.896;13.342;2023-04-19T01:40:32;93160.13;;;6.51;73.28
39613;BME280;25303;48.896;13.342;2023-04-19T01:43:16;93156.06;;;6.48;73.06
39613;BME280;25303;48.896;13.342;2023-04-19T01:45:59;93152.56;;;6.49;72.84
39613;BME280;25303;48.896;13.342;2023-04-19T01:48:42;93145.91;;;6.37;73.23
39613;BME280;25303;48.896;13.342;2023-04-19T01:51:25;93144.41;;;6.34;73.37
39613;BME280;25303;48.896;13.342;2023-04-19T01:54:07;93142.88;;;6.32;73.35
39613;BME280;25303;48.896;13.342;2023-04-19T01:56:52;93139.78;;;6.28;73.29
39613;BME280;25303;48.896;13.342;2023-04-19T01:59:34;93140.84;;;6.26;73.46
39613;BME280;25303;48.896;13.342;2023-04-19T02:02:17;93133.28;;;6.24;73.48
39613;BME280;25303;48.896;13.342;2023-04-19T02:05:00;93128.41;;;6.21;73.48
39613;BME280;25303;48.896;13.342;2023-04-19T02:07:44;93121.81;;;6.18;73.34
39613;BME280;25303;48.896;13.342;2023-04-19T02:10:26;93131.25;;;6.18;73.41
39613;BME280;25303;48.896;13.342;2023-04-19T02:13:11;93118.56;;;6.16;73.46
39613;BME280;25303;48.896;13.342;2023-04-19T02:15:53;93121.13;;;6.16;73.40
39613;BME280;25303;48.896;13.342;2023-04-19T02:18:36;93121.81;;;6.18;73.07
39613;BME280;25303;48.896;13.342;2023-04-19T02:21:19;93114.59;;;6.23;72.92
39613;BME280;25303;48.896;13.342;2023-04-19T02:24:02;93115.53;;;6.22;72.90
39613;BME280;25303;48.896;13.342;2023-04-19T02:26:45;93112.91;;;6.13;73.01
39613;BME280;25303;48.896;13.342;2023-04-19T02:29:31;93115.00;;;6.07;73.09
39613;BME280;25303;48.896;13.342;2023-04-19T02:32:14;93102.47;;;6.04;73.06
39613;BME280;25303;48.896;13.342;2023-04-19T02:34:56;93098.63;;;5.99;73.26
39613;BME280;25303;48.896;13.342;2023-04-19T02:37:41;93096.19;;;5.97;73.46
39613;BME280;25303;48.896;13.342;2023-04-19T02:40:23;93097.13;;;5.96;73.45
39613;BME280;25303;48.896;13.342;2023-04-19T02:43:06;93087.84;;;5.95;73.41
39613;BME280;25303;48.896;13.342;2023-04-19T02:45:51;93089.59;;;5.95;73.48
39613;BME280;25303;48.896;13.342;2023-04-19T02:48:34;93085.06;;;5.98;73.48
39613;BME280;25303;48.896;13.342;2023-04-19T02:51:17;93080.88;;;5.97;73.24
39613;BME280;25303;48.896;13.342;2023-04-19T02:54:00;93078.31;;;5.97;73.30
39613;BME280;25303;48.896;13.342;2023-04-19T02:56:43;93082.50;;;5.98;73.33
39613;BME280;25303;48.896;13.342;2023-04-19T02:59:26;93073.19;;;5.97;73.22
39613;BME280;25303;48.896;13.342;2023-04-19T03:02:13;93070.88;;;5.94;73.12
39613;BME280;25303;48.896;13.342;2023-04-19T03:04:56;93066.03;;;5.91;73.42
39613;BME280;25303;48.896;13.342;2023-04-19T03:07:39;93072.06;;;5.90;73.16
39613;BME280;25303;48.896;13.342;2023-04-19T03:10:25;93062.91;;;5.87;73.19
39613;BME280;25303;48.896;13.342;2023-04-19T03:13:07;93056.31;;;5.85;73.20
39613;BME280;25303;48.896;13.342;2023-04-19T03:15:51;93048.66;;;5.85;73.51
39613;BME280;25303;48.896;13.342;2023-04-19T03:18:37;93059.56;;;5.87;73.46
39613;BME280;25303;48.896;13.342;2023-04-19T03:21:20;93053.47;;;5.88;73.47
39613;BME280;25303;48.896;13.342;2023-04-19T03:24:07;93053.38;;;5.89;73.54
39613;BME280;25303;48.896;13.342;2023-04-19T03:26:54;93042.22;;;5.90;73.44
39613;BME280;25303;48.896;13.342;2023-04-19T03:29:40;93042.91;;;5.92;73.75
39613;BME280;25303;48.896;13.342;2023-04-19T03:32:25;93045.22;;;5.96;73.82
39613;BME280;25303;48.896;13.342;2023-04-19T03:35:09;93039.06;;;5.98;73.95
39613;BME280;25303;48.896;13.342;2023-04-19T03:37:52;93038.94;;;6.00;74.12
39613;BME280;25303;48.896;13.342;2023-04-19T03:40:36;93038.84;;;6.01;73.89
39613;BME280;25303;48.896;13.342;2023-04-19T03:43:22;93038.84;;;6.01;73.97
39613;BME280;25303;48.896;13.342;2023-04-19T03:46:05;93034.88;;;5.97;73.83
39613;BME280;25303;48.896;13.342;2023-04-19T03:48:48;93024.91;;;5.94;73.78
39613;BME280;25303;48.896;13.342;2023-04-19T03:51:34;93027.94;;;5.88;74.49
39613;BME280;25303;48.896;13.342;2023-04-19T03:54:17;93027.63;;;5.81;74.30
39613;BME280;25303;48.896;13.342;2023-04-19T03:57:00;93026.81;;;5.81;74.51
39613;BME280;25303;48.896;13.342;2023-04-19T03:59:43;93033.31;;;5.85;74.67
39613;BME280;25303;48.896;13.342;2023-04-19T04:02:26;93025.38;;;5.88;74.87
39613;BME280;25303;48.896;13.342;2023-04-19T04:05:09;93029.91;;;5.96;74.49
39613;BME280;25303;48.896;13.342;2023-04-19T04:07:53;93020.63;;;5.95;74.92
39613;BME280;25303;48.896;13.342;2023-04-19T04:10:37;93027.91;;;5.99;74.74
39613;BME280;25303;48.896;13.342;2023-04-19T04:13:20;93033.84;;;6.00;74.63
39613;BME280;25303;48.896;13.342;2023-04-19T04:16:14;93030.09;;;6.04;74.82
39613;BME280;25303;48.896;13.342;2023-04-19T04:18:57;93037.78;;;6.04;74.82
39613;BME280;25303;48.896;13.342;2023-04-19T04:21:43;93027.41;;;6.05;74.65
39613;BME280;25303;48.896;13.342;2023-04-19T04:24:28;93028.22;;;6.06;74.79
39613;BME280;25303;48.896;13.342;2023-04-19T04:27:36;93024.84;;;6.05;74.61
39613;BME280;25303;48.896;13.342;2023-04-19T04:30:23;93025.78;;;6.04;74.66
39613;BME280;25303;48.896;13.342;2023-04-19T04:33:10;93023.22;;;6.04;74.67
39613;BME280;25303;48.896;13.342;2023-04-19T04:35:55;93015.69;;;6.03;74.58
39613;BME280;25303;48.896;13.342;2023-04-19T04:38:44;93014.91;;;6.02;75.00
39613;BME280;25303;48.896;13.342;2023-04-19T04:41:28;93011.28;;;6.05;75.03
39613;BME280;25303;48.896;13.342;2023-04-19T04:44:11;93015.47;;;6.06;75.29
39613;BME280;25303;48.896;13.342;2023-04-19T04:46:58;93019.38;;;6.10;74.98
39613;BME280;25303;48.896;13.342;2023-04-19T04:49:43;93009.72;;;6.14;74.95
39613;BME280;25303;48.896;13.342;2023-04-19T04:52:26;93006.22;;;6.15;74.71
39613;BME280;25303;48.896;13.342;2023-04-19T04:55:19;93010.97;;;6.19;74.81
39613;BME280;25303;48.896;13.342;2023-04-19T04:58:04;93014.19;;;6.21;74.90
39613;BME280;25303;48.896;13.342;2023-04-19T05:01:16;93008.94;;;6.23;74.80
39613;BME280;25303;48.896;13.342;2023-04-19T05:04:01;93012.19;;;6.25;74.89
39613;BME280;25303;48.896;13.342;2023-04-19T05:06:46;93000.78;;;6.29;74.89
39613;BME280;25303;48.896;13.342;2023-04-19T05:09:35;93005.25;;;6.37;74.83
39613;BME280;25303;48.896;13.342;2023-04-19T05:12:18;93001.50;;;6.41;74.99
39613;BME280;25303;48.896;13.342;2023-04-19T05:15:03;92993.31;;;6.47;75.08
39613;BME280;25303;48.896;13.342;2023-04-19T05:17:47;92997.38;;;6.50;75.10
39613;BME280;25303;48.896;13.342;2023-04-19T05:20:30;93000.22;;;6.57;75.01
39613;BME280;25303;48.896;13.342;2023-04-19T05:23:28;92994.88;;;6.60;74.97
39613;BME280;25303;48.896;13.342;2023-04-19T05:26:11;92987.59;;;6.65;74.91
39613;BME280;25303;48.896;13.342;2023-04-19T05:28:57;92995.56;;;6.72;74.80
39613;BME280;25303;48.896;13.342;2023-04-19T05:32:01;92990.06;;;6.76;74.85
39613;BME280;25303;48.896;13.342;2023-04-19T05:34:47;92982.00;;;6.81;74.90
39613;BME280;25303;48.896;13.342;2023-04-19T05:37:31;92977.41;;;6.84;74.79
39613;BME280;25303;48.896;13.342;2023-04-19T05:40:13;92980.53;;;6.88;74.70
39613;BME280;25303;48.896;13.342;2023-04-19T05:42:56;92977.59;;;6.93;74.92
39613;BME280;25303;48.896;13.342;2023-04-19T05:45:39;92976.38;;;6.97;74.72
39613;BME280;25303;48.896;13.342;2023-04-19T05:48:24;92973.44;;;7.02;74.91
39613;BME280;25303;48.896;13.342;2023-04-19T05:51:25;92973.97;;;7.05;74.70
39613;BME280;25303;48.896;13.342;2023-04-19T05:54:27;92971.00;;;7.10;74.85
39613;BME280;25303;48.896;13.342;2023-04-19T05:57:15;92969.53;;;7.07;74.72
39613;BME280;25303;48.896;13.342;2023-04-19T05:59:58;92969.28;;;7.10;74.65
39613;BME280;25303;48.896;13.342;2023-04-19T06:02:58;92973.31;;;7.13;74.72
39613;BME280;25303;48.896;13.342;2023-04-19T06:05:42;92973.84;;;7.17;74.71
39613;BME280;25303;48.896;13.342;2023-04-19T06:08:25;92977.75;;;7.21;74.63
39613;BME280;25303;48.896;13.342;2023-04-19T06:11:09;92974.13;;;7.23;74.71
39613;BME280;25303;48.896;13.342;2023-04-19T06:14:07;92970.75;;;7.23;74.67
39613;BME280;25303;48.896;13.342;2023-04-19T06:16:50;92969.69;;;7.25;74.50
39613;BME280;25303;48.896;13.342;2023-04-19T06:19:33;92967.13;;;7.25;74.70
39613;BME280;25303;48.896;13.342;2023-04-19T06:22:18;92962.81;;;7.26;74.47
39613;BME280;25303;48.896;13.342;2023-04-19T06:25:01;92964.56;;;7.25;74.73
39613;BME280;25303;48.896;13.342;2023-04-19T06:27:44;92964.69;;;7.24;74.82
39613;BME280;25303;48.896;13.342;2023-04-19T06:30:27;92955.25;;;7.24;74.94
39613;BME280;25303;48.896;13.342;2023-04-19T06:33:10;92961.19;;;7.25;75.10
39613;BME280;25303;48.896;13.342;2023-04-19T06:35:52;92960.25;;;7.26;75.14
39613;BME280;25303;48.896;13.342;2023-04-19T06:38:37;92960.38;;;7.24;75.07
39613;BME280;25303;48.896;13.342;2023-04-19T06:41:20;92951.06;;;7.23;75.21
39613;BME280;25303;48.896;13.342;2023-04-19T06:44:04;92947.72;;;7.23;75.23
39613;BME280;25303;48.896;13.342;2023-04-19T06:46:47;92950.28;;;7.23;75.38
39613;BME280;25303;48.896;13.342;2023-04-19T06:49:30;92961.47;;;7.22;75.29
39613;BME280;25303;48.896;13.342;2023-04-19T06:52:13;92956.34;;;7.22;75.43
39613;BME280;25303;48.896;13.342;2023-04-19T06:54:57;92958.06;;;7.21;75.59
39613;BME280;25303;48.896;13.342;2023-04-19T06:57:40;92952.84;;;7.23;75.89
39613;BME280;25303;48.896;13.342;2023-04-19T07:00:23;92953.63;;;7.23;75.92
39613;BME280;25303;48.896;13.342;2023-04-19T07:03:06;92956.19;;;7.23;75.97
39613;BME280;25303;48.896;13.342;2023-04-19T07:05:49;92952.69;;;7.24;75.99
39613;BME280;25303;48.896;13.342;2023-04-19T07:08:33;92951.63;;;7.27;75.87
39613;BME280;25303;48.896;13.342;2023-04-19T07:11:32;92947.44;;;7.26;76.10
39613;BME280;25303;48.896;13.342;2023-04-19T07:14:15;92946.50;;;7.27;76.06
39613;BME280;25303;48.896;13.342;2023-04-19T07:16:59;92941.09;;;7.30;76.05
39613;BME280;25303;48.896;13.342;2023-04-19T07:19:46;92939.47;;;7.29;76.07
39613;BME280;25303;48.896;13.342;2023-04-19T07:22:29;92938.69;;;7.28;76.27
39613;BME280;25303;48.896;13.342;2023-04-19T07:25:12;92933.56;;;7.28;76.15
39613;BME280;25303;48.896;13.342;2023-04-19T07:27:57;92938.69;;;7.28;76.08
39613;BME280;25303;48.896;13.342;2023-04-19T07:30:40;92935.34;;;7.28;76.31
39613;BME280;25303;48.896;13.342;2023-04-19T07:33:26;92937.75;;;7.29;76.40
39613;BME280;25303;48.896;13.342;2023-04-19T07:36:10;92924.25;;;7.27;76.37
39613;BME280;25303;48.896;13.342;2023-04-19T07:38:53;92933.72;;;7.27;76.24
39613;BME280;25303;48.896;13.342;2023-04-19T07:41:36;92936.38;;;7.25;76.31
39613;BME280;25303;48.896;13.342;2023-04-19T07:44:21;92930.22;;;7.28;76.36
39613;BME280;25303;48.896;13.342;2023-04-19T07:47:03;92929.81;;;7.33;76.31
39613;BME280;25303;48.896;13.342;2023-04-19T07:49:50;92935.84;;;7.32;76.25
39613;BME280;25303;48.896;13.342;2023-04-19T07:52:33;92924.41;;;7.26;75.94
39613;BME280;25303;48.896;13.342;2023-04-19T07:55:16;92921.84;;;7.26;76.16
39613;BME280;25303;48.896;13.342;2023-04-19T07:57:59;92926.03;;;7.27;76.26
39613;BME280;25303;48.896;13.342;2023-04-19T08:00:43;92924.53;;;7.24;76.36
39613;BME280;25303;48.896;13.342;2023-04-19T08:03:26;92921.03;;;7.25;76.12
39613;BME280;25303;48.896;13.342;2023-04-19T08:06:10;92919.13;;;7.27;76.20
39613;BME280;25303;48.896;13.342;2023-04-19T08:08:54;92921.56;;;7.29;76.25
39613;BME280;25303;48.896;13.342;2023-04-19T08:11:37;92922.13;;;7.33;76.26
39613;BME280;25303;48.896;13.342;2023-04-19T08:14:20;92927.09;;;7.34;76.24
39613;BME280;25303;48.896;13.342;2023-04-19T08:17:22;92920.63;;;7.30;75.78
39613;BME280;25303;48.896;13.342;2023-04-19T08:20:13;92922.53;;;7.28;76.05
39613;BME280;25303;48.896;13.342;2023-04-19T08:22:56;92925.88;;;7.28;76.15
39613;BME280;25303;48.896;13.342;2023-04-19T08:25:45;92920.09;;;7.26;76.21
39613;BME280;25303;48.896;13.342;2023-04-19T08:28:28;92926.81;;;7.27;75.97
39613;BME280;25303;48.896;13.342;2023-04-19T08:31:11;92928.44;;;7.28;75.95
39613;BME280;25303;48.896;13.342;2023-04-19T08:33:55;92923.31;;;7.28;76.06
39613;BME280;25303;48.896;13.342;2023-04-19T08:36:39;92916.56;;;7.27;75.64
39613;BME280;25303;48.896;13.342;2023-04-19T08:39:36;92918.19;;;7.28;75.67
39613;BME280;25303;48.896;13.342;2023-04-19T08:42:19;92917.41;;;7.28;75.73
39613;BME280;25303;48.896;13.342;2023-04-19T08:45:18;92915.09;;;7.25;75.43
39613;BME280;25303;48.896;13.342;2023-04-19T08:48:07;92917.94;;;7.22;74.66
39613;BME280;25303;48.896;13.342;2023-04-19T08:50:55;92913.06;;;7.19;74.87
39613;BME280;25303;48.896;13.342;2023-04-19T08:53:47;92913.06;;;7.19;74.69
39613;BME280;25303;48.896;13.342;2023-04-19T08:56:30;92908.38;;;7.24;75.04
39613;BME280;25303;48.896;13.342;2023-04-19T08:59:16;92910.50;;;7.28;75.14
39613;BME280;25303;48.896;13.342;2023-04-19T09:02:00;92910.09;;;7.33;75.40
39613;BME280;25303;48.896;13.342;2023-04-19T09:04:43;92901.06;;;7.39;75.35
39613;BME280;25303;48.896;13.342;2023-04-19T09:07:28;92895.56;;;7.43;75.34
39613;BME280;25303;48.896;13.342;2023-04-19T09:10:13;92897.69;;;7.48;75.37
39613;BME280;25303;48.896;13.342;2023-04-19T09:12:59;92898.50;;;7.49;74.75
39613;BME280;25303;48.896;13.342;2023-04-19T09:15:43;92900.00;;;7.51;74.81
39613;BME280;25303;48.896;13.342;2023-04-19T09:18:26;92893.53;;;7.47;74.23
39613;BME280;25303;48.896;13.342;2023-04-19T09:21:26;92899.59;;;7.46;74.16
39613;BME280;25303;48.896;13.342;2023-04-19T09:24:10;92893.78;;;7.44;73.79
39613;BME280;25303;48.896;13.342;2023-04-19T09:26:54;92897.28;;;7.43;74.13
39613;BME280;25303;48.896;13.342;2023-04-19T09:29:38;92900.38;;;7.37;73.17
39613;BME280;25303;48.896;13.342;2023-04-19T09:32:21;92894.75;;;7.33;73.96
39613;BME280;25303;48.896;13.342;2023-04-19T09:35:05;92893.13;;;7.32;74.07
39613;BME280;25303;48.896;13.342;2023-04-19T09:37:57;92888.00;;;7.32;74.28
39613;BME280;25303;48.896;13.342;2023-04-19T09:40:48;92890.16;;;7.37;74.54
39613;BME280;25303;48.896;13.342;2023-04-19T09:43:31;92882.34;;;7.38;74.39
39613;BME280;25303;48.896;13.342;2023-04-19T09:46:35;92888.16;;;7.40;74.46
39613;BME280;25303;48.896;13.342;2023-04-19T09:49:21;92881.13;;;7.42;74.37
39613;BME280;25303;48.896;13.342;2023-04-19T09:52:24;92877.63;;;7.43;74.13
39613;BME280;25303;48.896;13.342;2023-04-19T09:55:08;92873.97;;;7.46;74.28
39613;BME280;25303;48.896;13.342;2023-04-19T09:58:04;92873.03;;;7.47;74.58
39613;BME280;25303;48.896;13.342;2023-04-19T10:00:48;92881.50;;;7.48;74.57
39613;BME280;25303;48.896;13.342;2023-04-19T10:03:44;92881.38;;;7.49;74.43
39613;BME280;25303;48.896;13.342;2023-04-19T10:06:29;92879.78;;;7.48;74.51
39613;BME280;25303;48.896;13.342;2023-04-19T10:09:33;92879.91;;;7.47;74.46
39613;BME280;25303;48.896;13.342;2023-04-19T10:12:32;92879.91;;;7.47;74.48
39613;BME280;25303;48.896;13.342;2023-04-19T10:15:40;92878.28;;;7.45;74.29
39613;BME280;25303;48.896;13.342;2023-04-19T10:18:34;92877.91;;;7.40;73.67
39613;BME280;25303;48.896;13.342;2023-04-19T10:21:18;92869.28;;;7.32;73.64
39613;BME280;25303;48.896;13.342;2023-04-19T10:24:02;92868.19;;;7.24;73.54
39613;BME280;25303;48.896;13.342;2023-04-19T10:27:06;92870.22;;;7.21;73.72
39613;BME280;25303;48.896;13.342;2023-04-19T10:29:54;92871.59;;;7.15;73.61
39613;BME280;25303;48.896;13.342;2023-04-19T10:32:40;92864.97;;;7.12;73.29
39613;BME280;25303;48.896;13.342;2023-04-19T10:35:24;92862.69;;;7.09;73.32
39613;BME280;25303;48.896;13.342;2023-04-19T10:38:10;92858.38;;;7.10;73.71
39613;BME280;25303;48.896;13.342;2023-04-19T10:40:55;92867.56;;;7.03;73.38
39613;BME280;25303;48.896;13.342;2023-04-19T10:43:43;92861.34;;;6.95;73.02
39613;BME280;25303;48.896;13.342;2023-04-19T10:46:37;92859.19;;;6.91;73.61
39613;BME280;25303;48.896;13.342;2023-04-19T10:49:23;92860.25;;;6.88;73.47
39613;BME280;25303;48.896;13.342;2023-04-19T10:52:06;92857.03;;;6.86;73.82
39613;BME280;25303;48.896;13.342;2023-04-19T10:55:08;92853.25;;;6.90;74.14
39613;BME280;25303;48.896;13.342;2023-04-19T10:58:03;92853.13;;;6.92;74.06
39613;BME280;25303;48.896;13.342;2023-04-19T11:00:46;92848.81;;;6.92;73.83
39613;BME280;25303;48.896;13.342;2023-04-19T11:03:50;92839.66;;;6.99;74.28
39613;BME280;25303;48.896;13.342;2023-04-19T11:06:35;92845.03;;;7.06;74.42
39613;BME280;25303;48.896;13.342;2023-04-19T11:09:21;92843.84;;;7.10;74.31
39613;BME280;25303;48.896;13.342;2023-04-19T11:12:05;92839.25;;;7.14;74.03
39613;BME280;25303;48.896;13.342;2023-04-19T11:14:51;92838.31;;;6.95;72.53
39613;BME280;25303;48.896;13.342;2023-04-19T11:17:34;92846.91;;;6.84;72.19
39613;BME280;25303;48.896;13.342;2023-04-19T11:20:22;92843.56;;;6.74;72.54
39613;BME280;25303;48.896;13.342;2023-04-19T11:23:15;92832.91;;;6.69;72.90
39613;BME280;25303;48.896;13.342;2023-04-19T11:25:59;92836.13;;;6.61;72.88
39613;BME280;25303;48.896;13.342;2023-04-19T11:28:43;92840.16;;;6.54;72.58
39613;BME280;25303;48.896;13.342;2023-04-19T11:31:26;92829.63;;;6.47;72.33
39613;BME280;25303;48.896;13.342;2023-04-19T11:34:09;92828.16;;;6.45;72.44
39613;BME280;25303;48.896;13.342;2023-04-19T11:36:51;92826.28;;;6.47;72.73
39613;BME280;25303;48.896;13.342;2023-04-19T11:39:45;92822.13;;;6.46;72.48
39613;BME280;25303;48.896;13.342;2023-04-19T11:42:28;92826.13;;;6.38;72.19
39613;BME280;25303;48.896;13.342;2023-04-19T11:45:12;92831.91;;;6.31;71.86
39613;BME280;25303;48.896;13.342;2023-04-19T11:48:13;92824.50;;;6.28;72.74
39613;BME280;25303;48.896;13.342;2023-04-19T11:50:57;92824.22;;;6.31;73.14
39613;BME280;25303;48.896;13.342;2023-04-19T11:53:40;92820.63;;;6.33;73.23
39613;BME280;25303;48.896;13.342;2023-04-19T11:56:24;92827.75;;;6.39;73.72
39613;BME280;25303;48.896;13.342;2023-04-19T11:59:08;92819.81;;;6.43;73.63
39613;BME280;25303;48.896;13.342;2023-04-19T12:01:51;92825.34;;;6.48;73.40
39613;BME280;25303;48.896;13.342;2023-04-19T12:04:33;92825.88;;;6.51;73.47
39613;BME280;25303;48.896;13.342;2023-04-19T12:07:17;92816.84;;;6.47;72.72
39613;BME280;25303;48.896;13.342;2023-04-19T12:10:07;92823.00;;;6.25;71.06
39613;BME280;25303;48.896;13.342;2023-04-19T12:12:52;92820.06;;;6.20;71.86
39613;BME280;25303;48.896;13.342;2023-04-19T12:15:41;92814.09;;;6.10;71.27
39613;BME280;25303;48.896;13.342;2023-04-19T12:18:24;92813.94;;;6.01;71.51
39613;BME280;25303;48.896;13.342;2023-04-19T12:21:07;92823.34;;;6.01;71.71
39613;BME280;25303;48.896;13.342;2023-04-19T12:23:52;92814.28;;;5.87;70.91
39613;BME280;25303;48.896;13.342;2023-04-19T12:26:36;92812.13;;;5.92;71.38
39613;BME280;25303;48.896;13.342;2023-04-19T12:29:20;92807.69;;;5.94;71.26
39613;BME280;25303;48.896;13.342;2023-04-19T12:32:03;92807.22;;;6.00;71.47
39613;BME280;25303;48.896;13.342;2023-04-19T12:34:46;92810.84;;;6.07;71.74
39613;BME280;25303;48.896;13.342;2023-04-19T12:37:29;92807.63;;;6.05;70.43
39613;BME280;25303;48.896;13.342;2023-04-19T12:40:13;92805.41;;;5.91;70.22
39613;BME280;25303;48.896;13.342;2023-04-19T12:42:56;92798.97;;;5.97;70.94
39613;BME280;25303;48.896;13.342;2023-04-19T12:45:40;92796.53;;;5.95;71.28
39613;BME280;25303;48.896;13.342;2023-04-19T12:48:23;92795.91;;;6.03;71.21
39613;BME280;25303;48.896;13.342;2023-04-19T12:51:06;92798.25;;;6.16;71.20
39613;BME280;25303;48.896;13.342;2023-04-19T12:53:49;92796.50;;;6.26;71.51
39613;BME280;25303;48.896;13.342;2023-04-19T12:56:32;92797.59;;;6.33;71.64
39613;BME280;25303;48.896;13.342;2023-04-19T12:59:15;92796.94;;;6.41;71.82
39613;BME280;25303;48.896;13.342;2023-04-19T13:02:00;92801.91;;;6.43;71.88
39613;BME280;25303;48.896;13.342;2023-04-19T13:04:43;92805.84;;;6.47;71.99
39613;BME280;25303;48.896;13.342;2023-04-19T13:07:26;92801.00;;;6.53;72.07
39613;BME280;25303;48.896;13.342;2023-04-19T13:10:10;92803.69;;;6.62;71.99
39613;BME280;25303;48.896;13.342;2023-04-19T13:12:52;92805.16;;;6.64;71.19
39613;BME280;25303;48.896;13.342;2023-04-19T13:15:36;92804.75;;;6.69;71.33
39613;BME280;25303;48.896;13.342;2023-04-19T13:18:20;92788.88;;;6.65;70.91
39613;BME280;25303;48.896;13.342;2023-04-19T13:21:04;92785.50;;;6.75;71.27
39613;BME280;25303;48.896;13.342;2023-04-19T13:23:49;92786.06;;;6.78;71.23
39613;BME280;25303;48.896;13.342;2023-04-19T13:26:32;92777.41;;;6.79;71.19
39613;BME280;25303;48.896;13.342;2023-04-19T13:29:15;92777.41;;;6.79;69.81
39613;BME280;25303;48.896;13.342;2023-04-19T13:31:58;92775.53;;;6.72;68.68
39613;BME280;25303;48.896;13.342;2023-04-19T13:34:42;92769.88;;;6.78;69.34
39613;BME280;25303;48.896;13.342;2023-04-19T13:37:25;92768.94;;;6.79;69.53
39613;BME280;25303;48.896;13.342;2023-04-19T13:40:09;92765.44;;;6.80;69.23
39613;BME280;25303;48.896;13.342;2023-04-19T13:43:00;92753.34;;;6.82;68.83
39613;BME280;25303;48.896;13.342;2023-04-19T13:45:43;92761.13;;;6.80;67.66
39613;BME280;25303;48.896;13.342;2023-04-19T13:48:26;92754.69;;;6.76;67.36
39613;BME280;25303;48.896;13.342;2023-04-19T13:51:11;92760.75;;;6.75;67.04
39613;BME280;25303;48.896;13.342;2023-04-19T13:53:54;92762.22;;;6.78;67.81
39613;BME280;25303;48.896;13.342;2023-04-19T13:56:38;92756.69;;;6.82;68.36
39613;BME280;25303;48.896;13.342;2023-04-19T13:59:20;92755.47;;;6.87;68.18
39613;BME280;25303;48.896;13.342;2023-04-19T14:02:07;92749.25;;;6.89;67.53
39613;BME280;25303;48.896;13.342;2023-04-19T14:04:50;92736.47;;;6.89;67.02
39613;BME280;25303;48.896;13.342;2023-04-19T14:07:34;92734.84;;;6.98;67.73
39613;BME280;25303;48.896;13.342;2023-04-19T14:10:17;92738.31;;;7.07;68.25
39613;BME280;25303;48.896;13.342;2023-04-19T14:13:00;92738.56;;;7.13;67.96
39613;BME280;25303;48.896;13.342;2023-04-19T14:15:43;92731.44;;;7.17;67.88
39613;BME280;25303;48.896;13.342;2023-04-19T14:18:26;92732.38;;;7.26;68.01
39613;BME280;25303;48.896;13.342;2023-04-19T14:21:09;92735.84;;;7.35;67.72
39613;BME280;25303;48.896;13.342;2023-04-19T14:23:54;92736.38;;;7.38;66.36
39613;BME280;25303;48.896;13.342;2023-04-19T14:26:37;92732.44;;;7.44;66.09
39613;BME280;25303;48.896;13.342;2023-04-19T14:29:19;92736.06;;;7.51;66.69
39613;BME280;25303;48.896;13.342;2023-04-19T14:32:02;92728.88;;;7.55;66.41
39613;BME280;25303;48.896;13.342;2023-04-19T14:35:05;92729.78;;;7.36;63.65
39613;BME280;25303;48.896;13.342;2023-04-19T14:37:48;92725.72;;;7.33;64.85